M I D A S
Marine Information and Data Acquisition System
Tripno 2015 of the Zeeleeuw from 2010-11-17 08:29:53 to 2010-11-17 15:14:32
Back to CruiseResearch ActivitiesStationsMapUnderway DataData graphs

EquipmentUnitsComment
TimeDGPSUTC
LatitudeDGPSDM.mWGS84
LongitudeDGPSDM.mWGS84
HeadingGyrodeg 
SOGDGPSknotsSpeed over ground
COGDGPSdegCourse over ground
DepthEcho soundermeters200 kHz
Missing or incorrect values are displayed as -999
Navigation data collected by the RV Zeeleeuw from 2010-11-17 07:24:56 to 2010-11-17 15:26:02
Time Latitude Longitude Heading SOG COG Depth
2010-11-17 07:26:01 51°13.665 2°55.957 123.5 0.3 288 -999
2010-11-17 07:27:01 51°13.664 2°55.958 123.7 0.1 138 -999
2010-11-17 07:28:01 51°13.663 2°55.958 123.4 0.1 152 -999
2010-11-17 07:29:01 51°13.663 2°55.958 123.7 0.2 144 -999
2010-11-17 07:30:00 51°13.664 2°55.958 123.8 0.1 190 9.6
2010-11-17 07:30:57 51°13.664 2°55.958 124.2 0.2 328 9.6
2010-11-17 07:31:57 51°13.665 2°55.959 123.1 -999 31 9.5
2010-11-17 07:32:56 51°13.664 2°55.959 123.3 0.1 347 9.6
2010-11-17 07:33:57 51°13.667 2°55.96 123.1 -999 223 9.6
2010-11-17 07:34:57 51°13.662 2°55.959 124.1 0.2 158 9.6
2010-11-17 07:35:57 51°13.664 2°55.959 124.2 0.1 342 9.6
2010-11-17 07:36:57 51°13.664 2°55.96 124.1 0.1 118 9.6
2010-11-17 07:37:58 51°13.662 2°55.958 123.5 0.1 319 9.6
2010-11-17 07:38:57 51°13.663 2°55.959 124.6 0.1 148 9.7
2010-11-17 07:39:57 51°13.663 2°55.959 123.9 -999 209 9.7
2010-11-17 07:40:57 51°13.663 2°55.959 123.8 -999 305 9.7
2010-11-17 07:41:57 51°13.663 2°55.96 123.9 0.1 138 9.7
2010-11-17 07:42:57 51°13.664 2°55.961 123 -999 122 9.7
2010-11-17 07:43:56 51°13.664 2°55.96 123.5 -999 139 9.7
2010-11-17 07:44:57 51°13.666 2°55.963 124.2 0.3 147 9.7
2010-11-17 07:45:57 51°13.662 2°55.959 124.1 0.2 338 9.8
2010-11-17 07:46:57 51°13.661 2°55.959 123.8 0.1 136 9.7
2010-11-17 07:47:58 51°13.665 2°55.961 123.2 0.1 320 9.7
2010-11-17 07:48:58 51°13.664 2°55.961 123.2 0.3 151 9.8
2010-11-17 07:49:57 51°13.665 2°55.962 123.5 0.1 307 9.8
2010-11-17 07:50:56 51°13.664 2°55.96 124.2 0.1 163 9.8
2010-11-17 07:51:57 51°13.662 2°55.959 125.3 0.3 181 9.8
2010-11-17 07:52:56 51°13.663 2°55.96 125.2 0.2 149 9.8
2010-11-17 07:53:57 51°13.665 2°55.961 125.3 0.3 357 9.8
2010-11-17 07:54:57 51°13.663 2°55.959 125.6 -999 143 9.8
2010-11-17 07:55:57 51°13.663 2°55.96 127.1 0.1 250 9.8
2010-11-17 07:56:57 51°13.663 2°55.961 125.6 0.3 152 9.8
2010-11-17 07:57:57 51°13.663 2°55.961 127.5 0.2 144 9.8
2010-11-17 07:58:57 51°13.673 2°55.968 126.9 0.1 323 9.8
2010-11-17 07:59:57 51°13.665 2°55.961 127.3 0.1 348 9.8
2010-11-17 08:00:57 51°13.664 2°55.96 125.8 0.1 285 9.9
2010-11-17 08:01:56 51°13.662 2°55.959 125.1 0.1 209 9.9
2010-11-17 08:02:57 51°13.662 2°55.96 125.7 0.1 160 9.9
2010-11-17 08:03:57 51°13.661 2°55.96 127 -999 235 10
2010-11-17 08:04:57 51°13.661 2°55.959 127.6 0.2 323 9.9
2010-11-17 08:05:57 51°13.662 2°55.959 127.7 0.4 342 9.9
2010-11-17 08:06:56 51°13.661 2°55.959 127.7 0.1 34 9.9
2010-11-17 08:07:57 51°13.66 2°55.959 127.7 0.1 348 10.2
2010-11-17 08:08:56 51°13.66 2°55.959 127.7 0.1 223 9.9
2010-11-17 08:09:56 51°13.66 2°55.958 127.5 0.1 279 9.9
2010-11-17 08:10:57 51°13.66 2°55.958 127.4 0.1 188 9.9
2010-11-17 08:11:57 51°13.66 2°55.958 127.3 -999 67 9.9
2010-11-17 08:12:57 51°13.66 2°55.958 127.3 0.1 41 9.9
2010-11-17 08:13:57 51°13.662 2°55.958 123.9 0.2 205 9.9
2010-11-17 08:14:57 51°13.663 2°55.959 127.8 0.1 233 9.9
2010-11-17 08:15:57 51°13.664 2°55.96 125.8 0.4 -999 9.9
2010-11-17 08:16:57 51°13.664 2°55.961 127.6 -999 58 9.9
2010-11-17 08:17:57 51°13.664 2°55.961 126.6 0.2 164 9.9
2010-11-17 08:18:57 51°13.665 2°55.961 126.9 0.2 352 9.9
2010-11-17 08:19:57 51°13.664 2°55.961 128 0.1 172 9.9
2010-11-17 08:20:57 51°13.664 2°55.962 128.3 0.3 145 9.9
2010-11-17 08:21:57 51°13.664 2°55.961 128.6 0.1 250 9.9
2010-11-17 08:22:57 51°13.664 2°55.962 122.6 0.1 94 9.8
2010-11-17 08:23:57 51°13.663 2°55.954 109.9 1.2 289 10
2010-11-17 08:25:01 51°13.685 2°55.864 105.3 4.6 289 -999
2010-11-17 08:26:01 51°13.698 2°55.763 92.9 3.5 278 -999
2010-11-17 08:26:59 51°13.707 2°55.727 53.2 0.8 347 15.6
2010-11-17 08:27:59 51°13.7 2°55.709 11.9 0.5 326 4.8
2010-11-17 08:28:59 51°13.761 2°55.675 337.6 6.6 335 13.3
2010-11-17 08:29:57 51°13.879 2°55.588 336.9 8.6 336 13.5
2010-11-17 08:30:57 51°14.026 2°55.486 337.2 9.8 338 13.6
2010-11-17 08:31:57 51°14.181 2°55.379 333.1 10.4 332 13.6
2010-11-17 08:32:57 51°14.337 2°55.234 329.5 11.4 328 13.3
2010-11-17 08:33:57 51°14.503 2°55.062 324 12.3 326 13.5
2010-11-17 08:34:57 51°14.689 2°54.889 320.9 13.1 327 14.1
2010-11-17 08:35:57 51°14.865 2°54.692 318 13 325 14.1
2010-11-17 08:36:57 51°15.042 2°54.495 318.7 13 324 12.2
2010-11-17 08:37:57 51°15.219 2°54.299 318.9 13 325 12.2
2010-11-17 08:38:57 51°15.398 2°54.106 318.8 13.1 326 12.3
2010-11-17 08:39:57 51°15.576 2°53.91 319.4 12.9 326 12.9
2010-11-17 08:40:57 51°15.744 2°53.698 315.7 12.8 321 13.4
2010-11-17 08:41:57 51°15.915 2°53.495 323.8 13 331 13.7
2010-11-17 08:42:57 51°16.119 2°53.366 333 13.1 338 14
2010-11-17 08:43:57 51°16.318 2°53.225 329.5 13 335 14.2
2010-11-17 08:44:57 51°16.516 2°53.081 328.8 13.1 335 14.2
2010-11-17 08:45:57 51°16.712 2°52.932 328.7 13.1 334 13.3
2010-11-17 08:46:57 51°16.907 2°52.78 328.7 13.2 333 11.7
2010-11-17 08:47:57 51°17.11 2°52.644 335.1 13.3 341 11.9
2010-11-17 08:48:57 51°17.334 2°52.625 357.9 13.6 2 12.3
2010-11-17 08:49:57 51°17.561 2°52.638 359.4 13.6 2 12.7
2010-11-17 08:50:57 51°17.789 2°52.655 359.4 13.8 3 12.7
2010-11-17 08:51:57 51°18.018 2°52.674 358.9 14.2 4 13.1
2010-11-17 08:52:57 51°18.244 2°52.689 359.1 13.7 3 13.3
2010-11-17 08:53:57 51°18.471 2°52.71 2.7 13.5 7 13.7
2010-11-17 08:54:57 51°18.696 2°52.785 10.5 13.9 14 13.9
2010-11-17 08:55:57 51°18.919 2°52.867 10.2 13.8 13 14.4
2010-11-17 08:56:57 51°19.142 2°52.945 9.9 13.7 12 15
2010-11-17 08:57:57 51°19.367 2°53.024 9.5 13.9 13 15.8
2010-11-17 08:58:57 51°19.592 2°53.102 9.4 13.8 12 16.5
2010-11-17 08:59:57 51°19.816 2°53.182 9.5 13.9 13 17.5
2010-11-17 09:00:57 51°20.042 2°53.259 9.1 13.6 11 18
2010-11-17 09:01:57 51°20.268 2°53.338 9.3 13.9 13 18.4
2010-11-17 09:02:57 51°20.495 2°53.415 9.3 13.9 12 18.6
2010-11-17 09:03:57 51°20.72 2°53.491 9.1 13.8 12 18.7
2010-11-17 09:04:57 51°20.945 2°53.567 9.5 13.8 12 18.7
2010-11-17 09:05:57 51°21.169 2°53.64 9.5 13.7 12 18.7
2010-11-17 09:06:57 51°21.394 2°53.709 7.2 13.8 9 18.8
2010-11-17 09:07:57 51°21.618 2°53.77 7.2 13.9 10 18.9
2010-11-17 09:08:57 51°21.842 2°53.835 7.4 13.7 10 20.3
2010-11-17 09:09:57 51°22.067 2°53.901 7.3 13.8 11 21.3
2010-11-17 09:10:57 51°22.292 2°53.97 7.3 13.8 11 22.1
2010-11-17 09:11:57 51°22.519 2°54.026 5 13.8 7 24.1
2010-11-17 09:12:57 51°22.746 2°54.079 5.1 13.8 8 24.8
2010-11-17 09:13:57 51°22.974 2°54.134 4.9 13.8 8 24.2
2010-11-17 09:14:57 51°23.203 2°54.185 5.3 13.7 7 23
2010-11-17 09:15:57 51°23.432 2°54.236 5.1 13.9 8 22.4
2010-11-17 09:16:57 51°23.663 2°54.289 5 14 8 22.4
2010-11-17 09:17:57 51°23.893 2°54.341 5.6 14 8 23.2
2010-11-17 09:18:57 51°24.124 2°54.394 5.2 14 8 23.8
2010-11-17 09:19:57 51°24.354 2°54.444 5.2 14 8 24.2
2010-11-17 09:20:57 51°24.584 2°54.494 5.1 13.9 8 22
2010-11-17 09:21:57 51°24.812 2°54.543 4.9 13.7 6 19.7
2010-11-17 09:22:57 51°25.039 2°54.589 5.2 13.7 7 21.7
2010-11-17 09:23:57 51°25.267 2°54.636 5.6 13.7 7 21.5
2010-11-17 09:24:57 51°25.495 2°54.682 5.4 13.8 6 22.1
2010-11-17 09:25:57 51°25.724 2°54.729 5.2 13.9 7 22.2
2010-11-17 09:26:57 51°25.953 2°54.776 5.2 13.8 7 25.4
2010-11-17 09:27:57 51°26.182 2°54.825 5.6 13.8 7 27.1
2010-11-17 09:28:57 51°26.411 2°54.875 5.2 13.9 8 26.9
2010-11-17 09:29:57 51°26.641 2°54.925 4.4 13.9 8 30.2
2010-11-17 09:30:57 51°26.87 2°54.977 5.4 14 8 28.3
2010-11-17 09:31:57 51°27.1 2°55.03 5.2 14 8 30.2
2010-11-17 09:32:57 51°27.33 2°55.081 5 13.9 8 31
2010-11-17 09:33:57 51°27.56 2°55.134 5.2 14 9 30.8
2010-11-17 09:34:57 51°27.791 2°55.184 5.3 14 7 30.1
2010-11-17 09:35:57 51°28.021 2°55.233 5.2 13.9 7 27.3
2010-11-17 09:36:57 51°28.251 2°55.279 5 13.9 6 27.2
2010-11-17 09:37:57 51°28.48 2°55.326 5.6 13.9 8 22.8
2010-11-17 09:38:57 51°28.709 2°55.371 4.9 13.9 6 23.1
2010-11-17 09:39:57 51°28.938 2°55.413 4.6 13.8 5 24.2
2010-11-17 09:40:57 51°29.166 2°55.459 6.1 13.8 7 27.2
2010-11-17 09:41:57 51°29.394 2°55.505 4.1 13.7 7 28.5
2010-11-17 09:42:57 51°29.622 2°55.552 5.6 13.8 7 29.8
2010-11-17 09:43:57 51°29.851 2°55.601 4.9 13.9 8 31.4
2010-11-17 09:44:57 51°30.08 2°55.653 5.9 13.9 8 32.6
2010-11-17 09:45:57 51°30.309 2°55.703 5 13.9 8 33.5
2010-11-17 09:46:57 51°30.535 2°55.776 10.2 13.9 13 36.2
2010-11-17 09:47:57 51°30.762 2°55.862 10.7 14 12 38.3
2010-11-17 09:48:57 51°30.982 2°55.983 22.3 14 24 36.1
2010-11-17 09:49:57 51°31.192 2°56.151 26.2 14.2 25 30.1
2010-11-17 09:50:57 51°31.403 2°56.317 25.7 14.1 26 21.4
2010-11-17 09:51:57 51°31.614 2°56.481 29.8 13.9 31 17.7
2010-11-17 09:52:57 51°31.782 2°56.709 46.6 11 44 19.7
2010-11-17 09:53:57 51°31.884 2°56.863 45.5 7.2 40 19.8
2010-11-17 09:54:57 51°31.98 2°56.994 44.5 8 41 20.1
2010-11-17 09:55:57 51°32.085 2°57.135 43.6 8.3 38 20
2010-11-17 09:56:57 51°32.193 2°57.288 50.9 9.7 48 16.8
2010-11-17 09:57:58 51°32.294 2°57.475 48.7 7.2 41 18.4
2010-11-17 09:58:57 51°32.369 2°57.524 8.2 3.6 9 18.7
2010-11-17 09:59:57 51°32.422 2°57.532 5.3 2.9 8 20.3
2010-11-17 10:00:57 51°32.464 2°57.546 23.7 2.3 15 16.3
2010-11-17 10:01:57 51°32.497 2°57.557 29.5 1.8 10 19.8
2010-11-17 10:02:57 51°32.524 2°57.565 33.4 1.6 7 20.5
2010-11-17 10:03:57 51°32.549 2°57.566 27.1 1.5 1 20.6
2010-11-17 10:04:58 51°32.592 2°57.568 351.4 3.3 354 19.9
2010-11-17 10:05:57 51°32.644 2°57.532 301.7 3.3 319 20.5
2010-11-17 10:06:57 51°32.656 2°57.468 234.7 2.1 250 21.3
2010-11-17 10:07:57 51°32.62 2°57.434 191.9 3.6 193 20.7
2010-11-17 10:08:57 51°32.554 2°57.421 183.1 3.5 183 18.2
2010-11-17 10:09:57 51°32.517 2°57.427 177.6 1.4 172 19.5
2010-11-17 10:10:57 51°32.505 2°57.424 182.2 0.4 203 18.4
2010-11-17 10:11:57 51°32.505 2°57.422 183.7 0.2 328 18.6
2010-11-17 10:12:57 51°32.511 2°57.419 185.9 0.6 341 19.3
2010-11-17 10:13:57 51°32.523 2°57.413 191.2 0.9 336 20
2010-11-17 10:14:57 51°32.539 2°57.408 199 1 354 19.3
2010-11-17 10:15:57 51°32.559 2°57.404 204.9 1.3 350 17.6
2010-11-17 10:16:57 51°32.576 2°57.4 199.4 1 349 19
2010-11-17 10:17:57 51°32.593 2°57.394 195.8 1 348 20.5
2010-11-17 10:18:57 51°32.609 2°57.387 197.5 1 344 21.1
2010-11-17 10:19:57 51°32.626 2°57.377 198.5 1 342 21.3
2010-11-17 10:20:57 51°32.642 2°57.37 201.7 1.1 348 21.6
2010-11-17 10:21:57 51°32.661 2°57.364 203.3 1.3 347 20.2
2010-11-17 10:22:57 51°32.679 2°57.356 204 1.1 345 21.9
2010-11-17 10:23:57 51°32.698 2°57.348 204.2 1.2 344 22.4
2010-11-17 10:24:57 51°32.716 2°57.34 200.8 1.2 339 22.4
2010-11-17 10:25:57 51°32.73 2°57.332 195.8 0.5 303 22.6
2010-11-17 10:26:57 51°32.715 2°57.334 165.9 1.7 167 22.3
2010-11-17 10:27:57 51°32.676 2°57.363 156.7 3.3 150 21.6
2010-11-17 10:28:57 51°32.625 2°57.404 166.5 3.5 165 20.9
2010-11-17 10:29:57 51°32.564 2°57.407 178.4 3.9 176 18.6
2010-11-17 10:30:57 51°32.503 2°57.408 189.3 3.5 190 17.5
2010-11-17 10:31:58 51°32.471 2°57.397 190 0.9 207 20.4
2010-11-17 10:32:57 51°32.468 2°57.387 191.6 0.2 270 20.5
2010-11-17 10:33:57 51°32.471 2°57.379 186.6 0.5 315 20.6
2010-11-17 10:34:57 51°32.478 2°57.37 188.7 0.6 342 20.7
2010-11-17 10:35:57 51°32.49 2°57.363 186.5 0.7 337 20.4
2010-11-17 10:36:57 51°32.504 2°57.356 193.9 0.9 343 19.7
2010-11-17 10:37:57 51°32.522 2°57.351 192.6 1.1 350 17.7
2010-11-17 10:38:57 51°32.538 2°57.345 186.6 1.1 354 19.6
2010-11-17 10:39:57 51°32.555 2°57.34 189.1 1.1 347 20.4
2010-11-17 10:40:57 51°32.573 2°57.333 196.4 1.1 348 20.1
2010-11-17 10:41:57 51°32.59 2°57.324 201.1 0.5 296 20.2
2010-11-17 10:42:57 51°32.579 2°57.325 162.5 1.2 145 20.1
2010-11-17 10:43:57 51°32.564 2°57.379 111.9 3.3 89 18.6
2010-11-17 10:44:57 51°32.607 2°57.458 28.9 4.6 23 20.6
2010-11-17 10:45:57 51°32.687 2°57.468 2.3 4.7 3 20.9
2010-11-17 10:46:57 51°32.756 2°57.483 14.6 3.4 10 19.3
2010-11-17 10:47:57 51°32.802 2°57.5 24.7 2.5 11 22.2
2010-11-17 10:48:57 51°32.837 2°57.514 29.4 2.1 13 21.4
2010-11-17 10:49:57 51°32.868 2°57.519 27.6 1.8 2 21.4
2010-11-17 10:50:57 51°32.894 2°57.516 22 1.5 352 20.8
2010-11-17 10:51:57 51°32.916 2°57.513 14.6 1.2 356 19.9
2010-11-17 10:52:57 51°32.939 2°57.507 10 1.6 355 21.2
2010-11-17 10:53:57 51°32.973 2°57.502 347.5 2.6 354 22.9
2010-11-17 10:54:57 51°33.021 2°57.482 320.7 3.1 339 23.1
2010-11-17 10:55:57 51°33.057 2°57.434 276.6 2.5 302 23.8
2010-11-17 10:56:57 51°33.068 2°57.374 247.1 2.3 272 24.1
2010-11-17 10:57:57 51°33.066 2°57.314 237.9 2.2 263 21.8
2010-11-17 10:58:58 51°33.062 2°57.248 238.4 2.4 263 23.9
2010-11-17 10:59:57 51°33.056 2°57.186 235.1 2.4 257 24.4
2010-11-17 11:00:57 51°33.047 2°57.124 235.6 2.4 253 20.6
2010-11-17 11:01:57 51°33.04 2°57.059 236.9 2.4 261 25.4
2010-11-17 11:02:57 51°33.034 2°56.994 234.7 2.4 259 25.7
2010-11-17 11:03:57 51°33.023 2°56.932 232.3 2.4 250 25.6
2010-11-17 11:04:57 51°33.012 2°56.868 233.8 2.4 252 25.4
2010-11-17 11:05:57 51°33.002 2°56.803 235.2 2.5 255 24.3
2010-11-17 11:06:57 51°32.992 2°56.737 236.1 2.6 259 24.3
2010-11-17 11:07:57 51°32.983 2°56.67 236.3 2.5 260 25.4
2010-11-17 11:08:57 51°32.973 2°56.603 234.9 2.5 255 26.5
2010-11-17 11:09:57 51°32.967 2°56.556 224.8 1.3 257 23.9
2010-11-17 11:10:57 51°32.966 2°56.529 214.7 0.8 269 25.6
2010-11-17 11:11:57 51°32.97 2°56.515 205.6 0.6 324 25.7
2010-11-17 11:12:57 51°32.98 2°56.508 199.1 0.8 348 25.5
2010-11-17 11:13:57 51°32.996 2°56.502 194.3 1.1 348 23.8
2010-11-17 11:14:57 51°33.016 2°56.496 194.5 1.2 348 25
2010-11-17 11:15:57 51°33.039 2°56.488 199.9 1.5 355 25.9
2010-11-17 11:16:57 51°33.063 2°56.483 210.4 1.5 354 27.1
2010-11-17 11:17:57 51°33.088 2°56.479 219.6 1.5 359 27.5
2010-11-17 11:18:57 51°33.114 2°56.477 226.2 1.6 358 27.4
2010-11-17 11:19:57 51°33.139 2°56.475 228 1.4 3 27.8
2010-11-17 11:20:57 51°33.164 2°56.472 225.9 1.6 357 27.9
2010-11-17 11:21:57 51°33.189 2°56.47 222.4 1.4 358 28
2010-11-17 11:22:57 51°33.214 2°56.467 217.2 1.5 359 27.1
2010-11-17 11:23:57 51°33.224 2°56.449 217 1.3 249 26.9
2010-11-17 11:24:57 51°33.205 2°56.407 214.6 2.5 229 28.3
2010-11-17 11:25:57 51°33.174 2°56.348 219.8 3.2 232 27.8
2010-11-17 11:26:57 51°33.145 2°56.268 232.5 3.6 245 27.3
2010-11-17 11:27:57 51°33.127 2°56.171 243.4 4 259 26.5
2010-11-17 11:28:57 51°33.108 2°56.083 226.4 2.6 242 25.8
2010-11-17 11:29:57 51°33.095 2°56.045 212.2 1.1 245 26.7
2010-11-17 11:30:57 51°33.09 2°56.027 198.8 0.3 248 25.7
2010-11-17 11:31:57 51°33.093 2°56.016 192.2 0.4 304 25.4
2010-11-17 11:32:57 51°33.101 2°56.011 180.7 0.6 349 25.8
2010-11-17 11:33:57 51°33.114 2°56.003 181.1 1.1 330 26.7
2010-11-17 11:34:57 51°33.13 2°55.992 194.5 1.2 334 27.4
2010-11-17 11:35:57 51°33.149 2°55.983 201.7 1.2 343 26.7
2010-11-17 11:36:57 51°33.169 2°55.974 208.4 1.3 347 25.9
2010-11-17 11:37:57 51°33.19 2°55.966 213 1.3 347 25.9
2010-11-17 11:38:57 51°33.21 2°55.957 211.3 1.1 346 26.6
2010-11-17 11:39:57 51°33.229 2°55.948 207.3 0.9 346 26.9
2010-11-17 11:40:57 51°33.248 2°55.94 202.8 1 345 26.9
2010-11-17 11:41:57 51°33.267 2°55.932 202.3 1 348 27.6
2010-11-17 11:42:57 51°33.285 2°55.921 202 1.1 340 27.3
2010-11-17 11:43:57 51°33.303 2°55.911 205 1.2 342 27.7
2010-11-17 11:44:57 51°33.322 2°55.9 207.4 1.3 340 28.2
2010-11-17 11:45:57 51°33.34 2°55.89 204.9 1.2 340 28.2
2010-11-17 11:46:57 51°33.36 2°55.881 202 1.3 347 27.6
2010-11-17 11:47:57 51°33.38 2°55.872 205.1 1.2 344 25.7
2010-11-17 11:48:57 51°33.4 2°55.863 205.2 1.4 341 26.4
2010-11-17 11:49:57 51°33.421 2°55.851 204.7 1 329 27.2
2010-11-17 11:50:57 51°33.423 2°55.837 182 0.4 232 27
2010-11-17 11:51:57 51°33.413 2°55.835 162.3 0.6 163 26.7
2010-11-17 11:52:57 51°33.404 2°55.846 145.2 0.7 132 25.9
2010-11-17 11:53:57 51°33.397 2°55.866 135.4 0.9 119 26.3
2010-11-17 11:54:57 51°33.388 2°55.895 132.2 1.2 120 26.1
2010-11-17 11:55:57 51°33.378 2°55.924 133.6 1.4 120 25.5
2010-11-17 11:56:57 51°33.367 2°55.953 132.4 1.2 114 25.1
2010-11-17 11:57:57 51°33.356 2°55.988 130.7 1.6 116 25.4
2010-11-17 11:58:57 51°33.347 2°56.025 126.5 1.5 108 26.7
2010-11-17 11:59:57 51°33.34 2°56.066 122.8 1.7 99 27.2
2010-11-17 12:00:57 51°33.335 2°56.111 120.2 1.8 102 28.2
2010-11-17 12:01:57 51°33.327 2°56.159 119.4 2 101 28.4
2010-11-17 12:02:57 51°33.325 2°56.212 108.8 2 85 28
2010-11-17 12:03:57 51°33.328 2°56.269 100.2 2.3 82 27.4
2010-11-17 12:04:57 51°33.34 2°56.33 88.8 2.6 68 28
2010-11-17 12:05:57 51°33.363 2°56.391 77 2.9 52 26.3
2010-11-17 12:06:57 51°33.389 2°56.456 82.8 2.8 61 27
2010-11-17 12:07:57 51°33.401 2°56.513 112.5 1.8 86 27.2
2010-11-17 12:08:57 51°33.396 2°56.537 152 0.3 150 27.2
2010-11-17 12:09:57 51°33.398 2°56.533 160.8 0.5 325 27.3
2010-11-17 12:10:57 51°33.41 2°56.519 175.1 1 333 27.5
2010-11-17 12:11:57 51°33.428 2°56.504 197.5 1.3 338 28.2
2010-11-17 12:12:57 51°33.449 2°56.491 211.3 1.3 345 28.4
2010-11-17 12:13:57 51°33.47 2°56.482 218.6 1.3 347 28.6
2010-11-17 12:14:57 51°33.493 2°56.473 223.6 1.3 345 28.5
2010-11-17 12:15:57 51°33.514 2°56.462 219.4 1.1 329 27.5
2010-11-17 12:16:57 51°33.511 2°56.434 201.4 1.5 224 28.5
2010-11-17 12:17:57 51°33.48 2°56.411 184.3 2.6 195 29.1
2010-11-17 12:18:57 51°33.416 2°56.389 190 4.5 201 28.3
2010-11-17 12:19:57 51°33.336 2°56.341 194.1 5.1 201 28
2010-11-17 12:20:57 51°33.256 2°56.271 207 5.5 216 28
2010-11-17 12:21:57 51°33.177 2°56.194 205.1 5.6 211 26.9
2010-11-17 12:22:57 51°33.101 2°56.103 208.2 5.5 216 25
2010-11-17 12:23:57 51°33.094 2°55.986 285.4 4.4 300 23.4
2010-11-17 12:24:57 51°33.149 2°55.929 338.7 3.3 341 24.1
2010-11-17 12:25:57 51°33.196 2°55.915 354.5 2.6 354 25.4
2010-11-17 12:26:57 51°33.233 2°55.908 6.2 2.1 353 25.8
2010-11-17 12:27:57 51°33.263 2°55.902 12.2 1.9 356 26.7
2010-11-17 12:28:57 51°33.306 2°55.908 19 3.2 5 27.3
2010-11-17 12:29:57 51°33.365 2°55.906 344.5 3.8 347 25.7
2010-11-17 12:30:57 51°33.408 2°55.848 283.1 3.3 297 26.2
2010-11-17 12:31:57 51°33.404 2°55.782 217.8 2.2 236 25.8
2010-11-17 12:32:57 51°33.376 2°55.765 167.4 1.8 173 27.1
2010-11-17 12:33:57 51°33.356 2°55.772 160.5 0.8 175 27.2
2010-11-17 12:34:57 51°33.35 2°55.771 157.2 0.1 227 26.8
2010-11-17 12:35:57 51°33.352 2°55.763 162.5 0.7 308 26.4
2010-11-17 12:36:57 51°33.36 2°55.749 174.6 0.9 314 26.6
2010-11-17 12:37:57 51°33.37 2°55.732 191.5 0.9 318 26.8
2010-11-17 12:38:57 51°33.381 2°55.712 200.3 1.2 311 26.8
2010-11-17 12:39:57 51°33.391 2°55.692 198.9 0.9 310 26.9
2010-11-17 12:40:57 51°33.393 2°55.676 184.3 0.9 214 27.2
2010-11-17 12:41:57 51°33.369 2°55.706 125.1 2.7 114 26.7
2010-11-17 12:42:57 51°33.384 2°55.777 54.5 2.9 37 26.9
2010-11-17 12:43:57 51°33.417 2°55.792 27.9 1.4 3 24.8
2010-11-17 12:44:57 51°33.43 2°55.776 14.4 0.9 309 24.3
2010-11-17 12:45:57 51°33.441 2°55.759 354.3 1 320 25.4
2010-11-17 12:46:57 51°33.454 2°55.744 345.6 0.9 325 26.3
2010-11-17 12:47:57 51°33.469 2°55.728 355.1 0.9 331 26.6
2010-11-17 12:48:57 51°33.486 2°55.713 4.5 1.3 334 26.7
2010-11-17 12:49:57 51°33.501 2°55.698 9.4 1.1 322 27.5
2010-11-17 12:50:57 51°33.515 2°55.679 7.3 1.1 332 27.8
2010-11-17 12:51:57 51°33.544 2°55.671 21.8 2.4 7 27.3
2010-11-17 12:52:57 51°33.588 2°55.697 48.7 3 34 27.3
2010-11-17 12:53:57 51°33.617 2°55.763 93.7 2.9 79 29.1
2010-11-17 12:54:57 51°33.594 2°55.813 159.8 2.7 164 28.7
2010-11-17 12:55:57 51°33.551 2°55.835 153.6 3.1 158 28.3
2010-11-17 12:56:57 51°33.471 2°55.905 157.3 6.7 160 27.7
2010-11-17 12:57:57 51°33.357 2°55.972 159.6 7.6 163 24.6
2010-11-17 12:58:57 51°33.239 2°56.033 154.7 7.4 156 26.8
2010-11-17 12:59:57 51°33.151 2°56.082 180.9 3.9 199 25.3
2010-11-17 13:00:57 51°33.122 2°55.998 260.8 4 277 26.1
2010-11-17 13:01:57 51°33.162 2°55.918 327.9 3.8 332 22.8
2010-11-17 13:02:57 51°33.208 2°55.892 348.5 2.4 340 25.4
2010-11-17 13:03:57 51°33.241 2°55.878 359.5 1.8 341 25
2010-11-17 13:04:57 51°33.267 2°55.865 5.9 1.4 344 25.7
2010-11-17 13:05:57 51°33.288 2°55.853 13.3 1.2 339 26.3
2010-11-17 13:06:57 51°33.306 2°55.838 15.6 1.2 326 26.3
2010-11-17 13:07:57 51°33.32 2°55.821 14.7 1.1 323 26.4
2010-11-17 13:08:57 51°33.333 2°55.801 5.5 0.9 317 26.2
2010-11-17 13:09:57 51°33.345 2°55.782 359.7 1.2 324 26.5
2010-11-17 13:10:57 51°33.356 2°55.761 356.8 1 313 26.8
2010-11-17 13:11:57 51°33.366 2°55.741 353.9 0.9 314 26.7
2010-11-17 13:12:57 51°33.378 2°55.721 355.8 1 313 26.9
2010-11-17 13:13:57 51°33.391 2°55.703 1.2 1 322 26.5
2010-11-17 13:14:57 51°33.404 2°55.684 3.7 0.9 315 26.7
2010-11-17 13:15:57 51°33.417 2°55.667 7.8 1.2 319 26.8
2010-11-17 13:16:57 51°33.429 2°55.647 5.2 1 315 26.5
2010-11-17 13:17:57 51°33.44 2°55.629 1.5 1.1 314 26.7
2010-11-17 13:18:57 51°33.452 2°55.61 2.8 0.8 319 26.2
2010-11-17 13:19:57 51°33.464 2°55.591 5 1 317 25.8
2010-11-17 13:20:57 51°33.477 2°55.571 5.9 1.2 323 25.8
2010-11-17 13:21:57 51°33.5 2°55.556 10.2 1.4 344 25.8
2010-11-17 13:22:57 51°33.519 2°55.542 14.2 1.2 332 26.7
2010-11-17 13:23:57 51°33.534 2°55.527 17.5 1 326 27.3
2010-11-17 13:24:57 51°33.547 2°55.51 16.6 1.1 321 26.9
2010-11-17 13:25:57 51°33.558 2°55.488 9.3 1 314 26.8
2010-11-17 13:26:57 51°33.594 2°55.464 333.7 3.3 329 27.6
2010-11-17 13:27:57 51°33.623 2°55.382 263.6 3.6 272 27.5
2010-11-17 13:28:57 51°33.612 2°55.319 223.1 1.6 250 28.2
2010-11-17 13:29:57 51°33.606 2°55.29 202.7 1 252 28.4
2010-11-17 13:30:57 51°33.606 2°55.269 193.3 0.6 272 28.2
2010-11-17 13:31:57 51°33.608 2°55.249 189.3 0.9 288 28.9
2010-11-17 13:32:57 51°33.611 2°55.229 187.8 0.7 282 28.1
2010-11-17 13:33:57 51°33.616 2°55.208 186.2 0.9 296 27.8
2010-11-17 13:34:57 51°33.609 2°55.183 200.9 1.5 237 27.6
2010-11-17 13:35:57 51°33.566 2°55.147 188.7 4.6 196 28.1
2010-11-17 13:36:57 51°33.461 2°55.117 185.1 7.6 190 27.3
2010-11-17 13:37:57 51°33.315 2°55.075 185.8 9.7 190 26.4
2010-11-17 13:38:57 51°33.134 2°55.026 185.7 11.9 189 23.3
2010-11-17 13:39:57 51°32.94 2°54.976 186.6 11.8 191 24.1
2010-11-17 13:40:57 51°32.745 2°54.925 186.6 11.9 189 24.4
2010-11-17 13:41:57 51°32.551 2°54.876 185.9 11.7 191 23.9
2010-11-17 13:42:57 51°32.357 2°54.825 184.7 11.8 189 21.7
2010-11-17 13:43:57 51°32.161 2°54.773 186.2 11.8 191 21.7
2010-11-17 13:44:57 51°31.966 2°54.722 186.2 12 192 20.7
2010-11-17 13:45:57 51°31.773 2°54.669 187 11.9 189 19
2010-11-17 13:46:57 51°31.579 2°54.615 186.3 11.9 190 18.9
2010-11-17 13:47:57 51°31.385 2°54.561 186.6 11.7 192 19.4
2010-11-17 13:48:57 51°31.191 2°54.51 186.9 11.9 188 17
2010-11-17 13:49:57 51°30.996 2°54.459 185.5 11.8 186 16.7
2010-11-17 13:50:57 51°30.803 2°54.406 186 11.6 189 16.5
2010-11-17 13:51:57 51°30.606 2°54.352 186.1 11.8 189 31.2
2010-11-17 13:52:57 51°30.408 2°54.302 185.9 12 187 34.9
2010-11-17 13:53:57 51°30.21 2°54.25 185.8 11.9 189 33
2010-11-17 13:54:57 51°30.012 2°54.195 186.8 12 190 32
2010-11-17 13:55:57 51°29.812 2°54.139 187.3 12.2 190 31.1
2010-11-17 13:56:57 51°29.615 2°54.084 186.1 12 191 29.9
2010-11-17 13:57:57 51°29.417 2°54.027 186.2 12.1 189 28.3
2010-11-17 13:58:57 51°29.218 2°53.974 185.4 12.1 186 27.3
2010-11-17 13:59:57 51°29.02 2°53.933 181.4 12 185 26.4
2010-11-17 14:00:57 51°28.821 2°53.909 181.2 12 183 25
2010-11-17 14:01:57 51°28.62 2°53.883 181.3 12 185 24.5
2010-11-17 14:02:57 51°28.42 2°53.854 181.3 12.1 185 22.6
2010-11-17 14:03:57 51°28.219 2°53.831 179 12.1 180 21.7
2010-11-17 14:04:57 51°28.019 2°53.821 177.5 12.1 182 21
2010-11-17 14:05:57 51°27.819 2°53.807 178.1 12.2 185 20.8
2010-11-17 14:06:57 51°27.62 2°53.801 176.6 12 179 21
2010-11-17 14:07:57 51°27.419 2°53.787 178.3 12.2 182 24
2010-11-17 14:08:57 51°27.218 2°53.773 178 12.1 181 23.8
2010-11-17 14:09:57 51°27.018 2°53.758 178.2 12.1 184 24.6
2010-11-17 14:10:57 51°26.815 2°53.743 178.3 12.1 183 27.1
2010-11-17 14:11:57 51°26.613 2°53.732 178.6 12.1 183 31.7
2010-11-17 14:12:57 51°26.408 2°53.715 178.9 12.2 182 32.1
2010-11-17 14:13:57 51°26.205 2°53.699 178.3 12.4 183 31.4
2010-11-17 14:14:57 51°26.001 2°53.683 178.2 12.2 183 29.4
2010-11-17 14:15:57 51°25.798 2°53.666 178.1 12.4 182 26.8
2010-11-17 14:16:57 51°25.595 2°53.65 177.9 12.1 182 24.6
2010-11-17 14:17:57 51°25.392 2°53.635 177.2 12.2 181 21.2
2010-11-17 14:18:57 51°25.189 2°53.618 178 12 182 20.6
2010-11-17 14:19:57 51°24.986 2°53.6 178.6 12.3 183 19.3
2010-11-17 14:20:57 51°24.783 2°53.581 179.4 12.2 182 17
2010-11-17 14:21:57 51°24.579 2°53.562 178.2 12.2 182 18.6
2010-11-17 14:22:57 51°24.375 2°53.543 177.2 12.5 185 17.3
2010-11-17 14:23:57 51°24.174 2°53.525 178.1 12 183 18.1
2010-11-17 14:24:57 51°23.969 2°53.502 179.2 12.3 185 20.8
2010-11-17 14:25:57 51°23.765 2°53.453 185.3 12.4 191 20.6
2010-11-17 14:26:57 51°23.561 2°53.397 184.5 12.6 190 19.9
2010-11-17 14:27:57 51°23.359 2°53.343 185.1 12.3 191 20.2
2010-11-17 14:28:57 51°23.153 2°53.289 184.9 12.7 191 18.3
2010-11-17 14:29:57 51°22.949 2°53.236 184.1 12.6 188 22.1
2010-11-17 14:30:57 51°22.745 2°53.181 183.7 12.5 191 21.9
2010-11-17 14:31:57 51°22.54 2°53.122 184.6 12.6 190 22.3
2010-11-17 14:32:57 51°22.333 2°53.061 184.1 12.7 191 23.1
2010-11-17 14:33:57 51°22.127 2°53.002 184 12.6 190 22.7
2010-11-17 14:34:57 51°21.921 2°52.942 184.8 12.5 190 21
2010-11-17 14:35:57 51°21.718 2°52.881 184.5 12.6 192 18.8
2010-11-17 14:36:57 51°21.513 2°52.826 183.7 12.4 189 17.4
2010-11-17 14:37:57 51°21.311 2°52.765 184.1 12.3 190 16.4
2010-11-17 14:38:57 51°21.107 2°52.707 183.9 12.4 190 14.5
2010-11-17 14:39:57 51°20.902 2°52.67 179.5 12.4 185 14.2
2010-11-17 14:40:57 51°20.697 2°52.626 181.7 12.5 188 14.8
2010-11-17 14:41:57 51°20.491 2°52.583 180.8 12.6 187 15.2
2010-11-17 14:42:57 51°20.285 2°52.536 181.4 12.7 188 15.6
2010-11-17 14:43:57 51°20.08 2°52.49 181.5 12.5 188 15.5
2010-11-17 14:44:57 51°19.872 2°52.447 181.2 12.6 188 15.5
2010-11-17 14:45:57 51°19.663 2°52.404 181 12.6 187 15.2
2010-11-17 14:46:57 51°19.454 2°52.358 181.6 12.9 188 14.7
2010-11-17 14:47:57 51°19.246 2°52.313 181.4 12.7 188 14.1
2010-11-17 14:48:57 51°19.038 2°52.269 181.1 12.5 188 13.2
2010-11-17 14:49:57 51°18.829 2°52.227 181.6 12.7 188 12.3
2010-11-17 14:50:57 51°18.621 2°52.187 180.9 12.8 187 11.6
2010-11-17 14:51:57 51°18.414 2°52.143 181.5 12.6 188 11
2010-11-17 14:52:57 51°18.206 2°52.098 181.5 12.8 187 10.8
2010-11-17 14:53:57 51°17.998 2°52.082 175.2 12.7 181 10.5
2010-11-17 14:54:57 51°17.788 2°52.076 174.7 12.6 182 10.4
2010-11-17 14:55:57 51°17.579 2°52.072 174.3 12.4 179 10.7
2010-11-17 14:56:57 51°17.374 2°52.115 161.5 12.4 168 10.6
2010-11-17 14:57:57 51°17.181 2°52.22 150.8 12.1 157 10.6
2010-11-17 14:58:57 51°16.995 2°52.347 150 12.1 156 9.2
2010-11-17 14:59:57 51°16.814 2°52.486 147.7 12.4 155 9.3
2010-11-17 15:00:57 51°16.631 2°52.624 148.9 12.2 154 10.6
2010-11-17 15:01:57 51°16.45 2°52.769 144.8 12.1 151 11.2
2010-11-17 15:02:57 51°16.274 2°52.922 144.7 11.9 152 11.2
2010-11-17 15:03:57 51°16.101 2°53.083 141.6 12.3 152 11.1
2010-11-17 15:04:57 51°15.936 2°53.258 137.4 11.9 143 11
2010-11-17 15:05:57 51°15.775 2°53.441 137.9 11.7 144 10.6
2010-11-17 15:06:57 51°15.621 2°53.636 131.4 11.8 139 10.5
2010-11-17 15:07:57 51°15.493 2°53.87 122.6 11.7 129 11.1
2010-11-17 15:08:57 51°15.355 2°54.089 137.9 11.8 146 9.9
2010-11-17 15:09:57 51°15.184 2°54.259 140.9 12.2 148 9.8
2010-11-17 15:10:57 51°15.014 2°54.434 140.1 12.3 146 9.8
2010-11-17 15:11:57 51°14.849 2°54.621 138.1 12.2 143 11
2010-11-17 15:12:57 51°14.686 2°54.812 136.8 12.2 144 10.6
2010-11-17 15:13:57 51°14.524 2°55.002 139.4 12.1 147 10.5
2010-11-17 15:14:57 51°14.36 2°55.18 143.1 11.8 146 10
2010-11-17 15:15:57 51°14.215 2°55.328 144.3 8.8 150 10.4
2010-11-17 15:16:58 51°14.099 2°55.433 148.9 7.4 153 10.4
2010-11-17 15:17:57 51°14.003 2°55.502 154.8 5.9 158 10.5
2010-11-17 15:18:58 51°13.907 2°55.563 155.1 6.4 158 10.5
2010-11-17 15:19:59 51°13.813 2°55.643 144.3 6 146 10.2
2010-11-17 15:21:00 51°13.743 2°55.739 130.6 5.2 131 8.8
2010-11-17 15:21:58 51°13.695 2°55.835 125.5 4.5 128 8.8
2010-11-17 15:22:57 51°13.666 2°55.926 107.7 3.8 109 8.4
2010-11-17 15:23:57 51°13.662 2°55.961 118.6 0.1 115 6.7
2010-11-17 15:24:57 51°13.661 2°55.96 130.4 0.2 103 6.8
2010-11-17 15:25:57 51°13.662 2°55.96 127.1 0.1 339 6.9